sensor_id;sensor_type;location;lat;lon;timestamp;P1;durP1;ratioP1;P2;durP2;ratioP2
76107;SDS011;64834;52.516;10.528;2023-04-19T00:02:17;5.60;;;2.05;;
76107;SDS011;64834;52.516;10.528;2023-04-19T00:04:43;3.20;;;1.85;;
76107;SDS011;64834;52.516;10.528;2023-04-19T00:07:09;4.15;;;2.25;;
76107;SDS011;64834;52.516;10.528;2023-04-19T00:09:35;4.45;;;2.00;;
76107;SDS011;64834;52.516;10.528;2023-04-19T00:12:01;3.67;;;1.92;;
76107;SDS011;64834;52.516;10.528;2023-04-19T00:14:27;5.80;;;2.25;;
76107;SDS011;64834;52.516;10.528;2023-04-19T00:16:52;8.15;;;2.22;;
76107;SDS011;64834;52.516;10.528;2023-04-19T00:19:18;3.85;;;1.98;;
76107;SDS011;64834;52.516;10.528;2023-04-19T00:21:43;3.53;;;2.05;;
76107;SDS011;64834;52.516;10.528;2023-04-19T00:24:08;7.88;;;2.22;;
76107;SDS011;64834;52.516;10.528;2023-04-19T00:26:34;5.60;;;2.45;;
76107;SDS011;64834;52.516;10.528;2023-04-19T00:28:59;5.05;;;1.98;;
76107;SDS011;64834;52.516;10.528;2023-04-19T00:31:24;3.65;;;1.98;;
76107;SDS011;64834;52.516;10.528;2023-04-19T00:33:50;9.88;;;2.75;;
76107;SDS011;64834;52.516;10.528;2023-04-19T00:36:15;5.32;;;2.30;;
76107;SDS011;64834;52.516;10.528;2023-04-19T00:38:40;4.72;;;2.03;;
76107;SDS011;64834;52.516;10.528;2023-04-19T00:41:06;3.85;;;2.20;;
76107;SDS011;64834;52.516;10.528;2023-04-19T00:43:31;5.93;;;2.17;;
76107;SDS011;64834;52.516;10.528;2023-04-19T00:45:56;4.80;;;2.15;;
76107;SDS011;64834;52.516;10.528;2023-04-19T00:48:22;3.83;;;1.85;;
76107;SDS011;64834;52.516;10.528;2023-04-19T00:50:48;6.43;;;1.95;;
76107;SDS011;64834;52.516;10.528;2023-04-19T00:53:13;5.03;;;1.92;;
76107;SDS011;64834;52.516;10.528;2023-04-19T00:55:40;3.78;;;1.95;;
76107;SDS011;64834;52.516;10.528;2023-04-19T00:58:06;4.35;;;2.00;;
76107;SDS011;64834;52.516;10.528;2023-04-19T01:00:32;3.85;;;1.80;;
76107;SDS011;64834;52.516;10.528;2023-04-19T01:02:58;5.68;;;1.90;;
76107;SDS011;64834;52.516;10.528;2023-04-19T01:05:23;6.10;;;2.20;;
76107;SDS011;64834;52.516;10.528;2023-04-19T01:07:48;3.70;;;1.83;;
76107;SDS011;64834;52.516;10.528;2023-04-19T01:10:14;3.58;;;1.75;;
76107;SDS011;64834;52.516;10.528;2023-04-19T01:12:39;5.07;;;2.72;;
76107;SDS011;64834;52.516;10.528;2023-04-19T01:15:05;5.65;;;1.77;;
76107;SDS011;64834;52.516;10.528;2023-04-19T01:17:31;5.57;;;2.45;;
76107;SDS011;64834;52.516;10.528;2023-04-19T01:20:00;4.68;;;2.13;;
76107;SDS011;64834;52.516;10.528;2023-04-19T01:22:27;5.15;;;2.15;;
76107;SDS011;64834;52.516;10.528;2023-04-19T01:24:54;3.75;;;1.90;;
76107;SDS011;64834;52.516;10.528;2023-04-19T01:27:20;4.38;;;2.25;;
76107;SDS011;64834;52.516;10.528;2023-04-19T01:29:45;4.18;;;2.40;;
76107;SDS011;64834;52.516;10.528;2023-04-19T01:32:11;6.38;;;2.40;;
76107;SDS011;64834;52.516;10.528;2023-04-19T01:37:04;7.97;;;1.90;;
76107;SDS011;64834;52.516;10.528;2023-04-19T01:39:29;3.90;;;2.05;;
76107;SDS011;64834;52.516;10.528;2023-04-19T01:41:55;4.25;;;1.65;;
76107;SDS011;64834;52.516;10.528;2023-04-19T01:44:20;4.95;;;1.92;;
76107;SDS011;64834;52.516;10.528;2023-04-19T01:46:46;4.43;;;1.80;;
76107;SDS011;64834;52.516;10.528;2023-04-19T01:49:12;4.72;;;2.08;;
76107;SDS011;64834;52.516;10.528;2023-04-19T01:51:37;6.50;;;2.55;;
76107;SDS011;64834;52.516;10.528;2023-04-19T01:54:03;5.72;;;1.95;;
76107;SDS011;64834;52.516;10.528;2023-04-19T01:56:28;4.43;;;1.90;;
76107;SDS011;64834;52.516;10.528;2023-04-19T01:58:54;4.43;;;2.03;;
76107;SDS011;64834;52.516;10.528;2023-04-19T02:01:19;3.78;;;1.85;;
76107;SDS011;64834;52.516;10.528;2023-04-19T02:03:44;5.53;;;2.05;;
76107;SDS011;64834;52.516;10.528;2023-04-19T02:06:10;5.25;;;2.30;;
76107;SDS011;64834;52.516;10.528;2023-04-19T02:08:36;3.80;;;2.00;;
76107;SDS011;64834;52.516;10.528;2023-04-19T02:11:09;6.00;;;2.13;;
76107;SDS011;64834;52.516;10.528;2023-04-19T02:13:38;3.38;;;1.90;;
76107;SDS011;64834;52.516;10.528;2023-04-19T02:16:04;4.95;;;2.08;;
76107;SDS011;64834;52.516;10.528;2023-04-19T02:18:30;5.82;;;2.00;;
76107;SDS011;64834;52.516;10.528;2023-04-19T02:20:55;4.45;;;2.10;;
76107;SDS011;64834;52.516;10.528;2023-04-19T02:23:23;3.78;;;1.55;;
76107;SDS011;64834;52.516;10.528;2023-04-19T02:25:49;6.10;;;2.25;;
76107;SDS011;64834;52.516;10.528;2023-04-19T02:28:15;3.33;;;2.05;;
76107;SDS011;64834;52.516;10.528;2023-04-19T02:30:40;4.47;;;1.90;;
76107;SDS011;64834;52.516;10.528;2023-04-19T02:33:05;4.22;;;1.90;;
76107;SDS011;64834;52.516;10.528;2023-04-19T02:35:31;4.72;;;2.13;;
76107;SDS011;64834;52.516;10.528;2023-04-19T02:37:57;5.30;;;1.90;;
76107;SDS011;64834;52.516;10.528;2023-04-19T02:40:23;6.80;;;2.33;;
76107;SDS011;64834;52.516;10.528;2023-04-19T02:42:49;6.70;;;2.50;;
76107;SDS011;64834;52.516;10.528;2023-04-19T02:45:15;5.22;;;2.45;;
76107;SDS011;64834;52.516;10.528;2023-04-19T02:47:40;5.68;;;1.90;;
76107;SDS011;64834;52.516;10.528;2023-04-19T02:50:05;5.25;;;2.17;;
76107;SDS011;64834;52.516;10.528;2023-04-19T02:52:31;5.88;;;2.15;;
76107;SDS011;64834;52.516;10.528;2023-04-19T02:54:56;4.22;;;1.80;;
76107;SDS011;64834;52.516;10.528;2023-04-19T02:57:22;5.18;;;2.00;;
76107;SDS011;64834;52.516;10.528;2023-04-19T02:59:47;5.32;;;2.13;;
76107;SDS011;64834;52.516;10.528;2023-04-19T03:02:12;5.28;;;2.13;;
76107;SDS011;64834;52.516;10.528;2023-04-19T03:04:38;8.98;;;2.38;;
76107;SDS011;64834;52.516;10.528;2023-04-19T03:07:03;4.28;;;1.90;;
76107;SDS011;64834;52.516;10.528;2023-04-19T03:09:28;6.05;;;1.98;;
76107;SDS011;64834;52.516;10.528;2023-04-19T03:11:54;6.43;;;2.00;;
76107;SDS011;64834;52.516;10.528;2023-04-19T03:14:19;3.58;;;1.80;;
76107;SDS011;64834;52.516;10.528;2023-04-19T03:16:44;4.78;;;2.00;;
76107;SDS011;64834;52.516;10.528;2023-04-19T03:19:10;4.70;;;1.77;;
76107;SDS011;64834;52.516;10.528;2023-04-19T03:21:35;4.80;;;2.20;;
76107;SDS011;64834;52.516;10.528;2023-04-19T03:24:00;4.75;;;1.95;;
76107;SDS011;64834;52.516;10.528;2023-04-19T03:26:26;6.13;;;1.65;;
76107;SDS011;64834;52.516;10.528;2023-04-19T03:28:51;5.85;;;2.20;;
76107;SDS011;64834;52.516;10.528;2023-04-19T03:31:17;6.95;;;2.20;;
76107;SDS011;64834;52.516;10.528;2023-04-19T03:33:42;7.00;;;2.28;;
76107;SDS011;64834;52.516;10.528;2023-04-19T03:36:07;4.05;;;1.98;;
76107;SDS011;64834;52.516;10.528;2023-04-19T03:38:33;3.92;;;1.83;;
76107;SDS011;64834;52.516;10.528;2023-04-19T03:40:58;6.25;;;1.95;;
76107;SDS011;64834;52.516;10.528;2023-04-19T03:43:23;4.90;;;1.65;;
76107;SDS011;64834;52.516;10.528;2023-04-19T03:45:49;3.92;;;1.70;;
76107;SDS011;64834;52.516;10.528;2023-04-19T03:48:14;3.65;;;1.73;;
76107;SDS011;64834;52.516;10.528;2023-04-19T03:50:40;7.82;;;1.98;;
76107;SDS011;64834;52.516;10.528;2023-04-19T03:53:05;5.10;;;2.13;;
76107;SDS011;64834;52.516;10.528;2023-04-19T03:55:31;5.40;;;1.63;;
76107;SDS011;64834;52.516;10.528;2023-04-19T03:57:56;6.88;;;2.20;;
76107;SDS011;64834;52.516;10.528;2023-04-19T04:00:21;4.22;;;1.98;;
76107;SDS011;64834;52.516;10.528;2023-04-19T04:02:47;6.25;;;2.42;;
76107;SDS011;64834;52.516;10.528;2023-04-19T04:05:12;4.78;;;1.92;;
76107;SDS011;64834;52.516;10.528;2023-04-19T04:07:37;5.30;;;2.05;;
76107;SDS011;64834;52.516;10.528;2023-04-19T04:10:03;4.38;;;2.20;;
76107;SDS011;64834;52.516;10.528;2023-04-19T04:12:29;4.03;;;1.88;;
76107;SDS011;64834;52.516;10.528;2023-04-19T04:14:54;3.90;;;1.80;;
76107;SDS011;64834;52.516;10.528;2023-04-19T04:17:19;4.00;;;1.52;;
76107;SDS011;64834;52.516;10.528;2023-04-19T04:19:45;5.93;;;1.77;;
76107;SDS011;64834;52.516;10.528;2023-04-19T04:22:10;3.65;;;2.05;;
76107;SDS011;64834;52.516;10.528;2023-04-19T04:24:39;5.25;;;2.42;;
76107;SDS011;64834;52.516;10.528;2023-04-19T04:27:08;5.75;;;1.92;;
76107;SDS011;64834;52.516;10.528;2023-04-19T04:29:38;6.13;;;1.70;;
76107;SDS011;64834;52.516;10.528;2023-04-19T04:32:05;6.43;;;2.08;;
76107;SDS011;64834;52.516;10.528;2023-04-19T04:34:32;4.68;;;1.75;;
76107;SDS011;64834;52.516;10.528;2023-04-19T04:36:58;4.15;;;1.83;;
76107;SDS011;64834;52.516;10.528;2023-04-19T04:39:23;4.43;;;1.58;;
76107;SDS011;64834;52.516;10.528;2023-04-19T04:41:48;4.07;;;1.70;;
76107;SDS011;64834;52.516;10.528;2023-04-19T04:44:15;6.88;;;2.17;;
76107;SDS011;64834;52.516;10.528;2023-04-19T04:46:41;6.97;;;2.20;;
76107;SDS011;64834;52.516;10.528;2023-04-19T04:49:06;4.03;;;1.75;;
76107;SDS011;64834;52.516;10.528;2023-04-19T04:51:32;6.50;;;2.00;;
76107;SDS011;64834;52.516;10.528;2023-04-19T04:53:58;3.95;;;1.83;;
76107;SDS011;64834;52.516;10.528;2023-04-19T04:56:23;5.50;;;1.90;;
76107;SDS011;64834;52.516;10.528;2023-04-19T04:58:50;4.50;;;1.85;;
76107;SDS011;64834;52.516;10.528;2023-04-19T05:01:16;5.05;;;1.83;;
76107;SDS011;64834;52.516;10.528;2023-04-19T05:03:46;5.35;;;1.70;;
76107;SDS011;64834;52.516;10.528;2023-04-19T05:06:11;5.03;;;2.00;;
76107;SDS011;64834;52.516;10.528;2023-04-19T05:08:37;5.97;;;2.05;;
76107;SDS011;64834;52.516;10.528;2023-04-19T05:11:02;4.70;;;1.70;;
76107;SDS011;64834;52.516;10.528;2023-04-19T05:13:27;3.78;;;2.10;;
76107;SDS011;64834;52.516;10.528;2023-04-19T05:15:53;4.18;;;1.55;;
76107;SDS011;64834;52.516;10.528;2023-04-19T05:18:18;5.35;;;1.63;;
76107;SDS011;64834;52.516;10.528;2023-04-19T05:20:43;5.05;;;1.70;;
76107;SDS011;64834;52.516;10.528;2023-04-19T05:23:10;3.90;;;1.52;;
76107;SDS011;64834;52.516;10.528;2023-04-19T05:25:36;4.90;;;1.60;;
76107;SDS011;64834;52.516;10.528;2023-04-19T05:28:01;7.72;;;2.00;;
76107;SDS011;64834;52.516;10.528;2023-04-19T05:30:27;3.60;;;1.67;;
76107;SDS011;64834;52.516;10.528;2023-04-19T05:32:53;5.47;;;1.35;;
76107;SDS011;64834;52.516;10.528;2023-04-19T05:35:18;4.18;;;1.83;;
76107;SDS011;64834;52.516;10.528;2023-04-19T05:37:44;4.43;;;1.65;;
76107;SDS011;64834;52.516;10.528;2023-04-19T05:40:09;3.55;;;1.60;;
76107;SDS011;64834;52.516;10.528;2023-04-19T05:42:34;3.28;;;1.70;;
76107;SDS011;64834;52.516;10.528;2023-04-19T05:45:00;3.15;;;1.20;;
76107;SDS011;64834;52.516;10.528;2023-04-19T05:47:25;2.85;;;1.40;;
76107;SDS011;64834;52.516;10.528;2023-04-19T05:49:51;4.28;;;1.23;;
76107;SDS011;64834;52.516;10.528;2023-04-19T05:52:16;3.88;;;1.38;;
76107;SDS011;64834;52.516;10.528;2023-04-19T05:54:41;3.00;;;1.45;;
76107;SDS011;64834;52.516;10.528;2023-04-19T05:57:08;3.63;;;1.33;;
76107;SDS011;64834;52.516;10.528;2023-04-19T05:59:33;3.03;;;1.65;;
76107;SDS011;64834;52.516;10.528;2023-04-19T06:01:59;4.22;;;1.20;;
76107;SDS011;64834;52.516;10.528;2023-04-19T06:04:25;2.22;;;1.30;;
76107;SDS011;64834;52.516;10.528;2023-04-19T06:06:50;2.55;;;1.20;;
76107;SDS011;64834;52.516;10.528;2023-04-19T06:09:16;4.63;;;1.77;;
76107;SDS011;64834;52.516;10.528;2023-04-19T06:11:42;5.07;;;1.27;;
76107;SDS011;64834;52.516;10.528;2023-04-19T06:14:08;4.88;;;1.15;;
76107;SDS011;64834;52.516;10.528;2023-04-19T06:16:34;2.10;;;0.95;;
76107;SDS011;64834;52.516;10.528;2023-04-19T06:18:59;3.13;;;1.23;;
76107;SDS011;64834;52.516;10.528;2023-04-19T06:21:25;3.50;;;1.30;;
76107;SDS011;64834;52.516;10.528;2023-04-19T06:23:50;2.88;;;1.45;;
76107;SDS011;64834;52.516;10.528;2023-04-19T06:26:16;2.58;;;0.90;;
76107;SDS011;64834;52.516;10.528;2023-04-19T06:28:41;2.67;;;1.17;;
76107;SDS011;64834;52.516;10.528;2023-04-19T06:31:06;2.88;;;1.45;;
76107;SDS011;64834;52.516;10.528;2023-04-19T06:33:32;3.70;;;1.02;;
76107;SDS011;64834;52.516;10.528;2023-04-19T06:35:57;4.32;;;1.40;;
76107;SDS011;64834;52.516;10.528;2023-04-19T06:38:22;2.08;;;0.90;;
76107;SDS011;64834;52.516;10.528;2023-04-19T06:40:48;3.95;;;1.10;;
76107;SDS011;64834;52.516;10.528;2023-04-19T06:43:13;2.45;;;1.20;;
76107;SDS011;64834;52.516;10.528;2023-04-19T06:45:38;4.05;;;0.98;;
76107;SDS011;64834;52.516;10.528;2023-04-19T06:48:04;2.25;;;0.82;;
76107;SDS011;64834;52.516;10.528;2023-04-19T06:50:29;2.33;;;0.90;;
76107;SDS011;64834;52.516;10.528;2023-04-19T06:52:54;1.77;;;0.90;;
76107;SDS011;64834;52.516;10.528;2023-04-19T06:55:20;2.25;;;0.90;;
76107;SDS011;64834;52.516;10.528;2023-04-19T06:57:45;1.83;;;0.95;;
76107;SDS011;64834;52.516;10.528;2023-04-19T07:00:11;2.17;;;1.08;;
76107;SDS011;64834;52.516;10.528;2023-04-19T07:02:37;3.03;;;0.90;;
76107;SDS011;64834;52.516;10.528;2023-04-19T07:05:03;4.22;;;1.00;;
76107;SDS011;64834;52.516;10.528;2023-04-19T07:07:28;2.08;;;0.95;;
76107;SDS011;64834;52.516;10.528;2023-04-19T07:09:54;2.17;;;0.90;;
76107;SDS011;64834;52.516;10.528;2023-04-19T07:12:19;2.60;;;0.90;;
76107;SDS011;64834;52.516;10.528;2023-04-19T07:14:45;2.22;;;0.85;;
76107;SDS011;64834;52.516;10.528;2023-04-19T07:17:10;2.10;;;1.05;;
76107;SDS011;64834;52.516;10.528;2023-04-19T07:19:37;4.18;;;1.10;;
76107;SDS011;64834;52.516;10.528;2023-04-19T07:22:02;2.60;;;0.82;;
76107;SDS011;64834;52.516;10.528;2023-04-19T07:24:27;3.15;;;1.27;;
76107;SDS011;64834;52.516;10.528;2023-04-19T07:26:54;2.15;;;1.08;;
76107;SDS011;64834;52.516;10.528;2023-04-19T07:29:20;2.58;;;1.10;;
76107;SDS011;64834;52.516;10.528;2023-04-19T07:31:45;2.83;;;0.80;;
76107;SDS011;64834;52.516;10.528;2023-04-19T07:34:11;4.50;;;1.00;;
76107;SDS011;64834;52.516;10.528;2023-04-19T07:36:36;2.97;;;1.13;;
76107;SDS011;64834;52.516;10.528;2023-04-19T07:39:02;3.47;;;0.93;;
76107;SDS011;64834;52.516;10.528;2023-04-19T07:41:28;3.05;;;1.40;;
76107;SDS011;64834;52.516;10.528;2023-04-19T07:43:54;2.03;;;1.08;;
76107;SDS011;64834;52.516;10.528;2023-04-19T07:46:19;5.05;;;1.20;;
76107;SDS011;64834;52.516;10.528;2023-04-19T07:48:44;2.05;;;1.02;;
76107;SDS011;64834;52.516;10.528;2023-04-19T07:51:11;3.97;;;1.08;;
76107;SDS011;64834;52.516;10.528;2023-04-19T07:53:38;2.55;;;1.10;;
76107;SDS011;64834;52.516;10.528;2023-04-19T07:56:04;2.67;;;0.90;;
76107;SDS011;64834;52.516;10.528;2023-04-19T07:58:30;3.00;;;0.80;;
76107;SDS011;64834;52.516;10.528;2023-04-19T08:00:56;3.35;;;1.20;;
76107;SDS011;64834;52.516;10.528;2023-04-19T08:03:21;3.65;;;1.00;;
76107;SDS011;64834;52.516;10.528;2023-04-19T08:05:46;3.63;;;1.33;;
76107;SDS011;64834;52.516;10.528;2023-04-19T08:08:12;3.83;;;1.05;;
76107;SDS011;64834;52.516;10.528;2023-04-19T08:10:37;2.80;;;1.05;;
76107;SDS011;64834;52.516;10.528;2023-04-19T08:13:02;2.35;;;1.02;;
76107;SDS011;64834;52.516;10.528;2023-04-19T08:15:28;2.17;;;0.98;;
76107;SDS011;64834;52.516;10.528;2023-04-19T08:17:53;2.55;;;1.15;;
76107;SDS011;64834;52.516;10.528;2023-04-19T08:20:18;4.85;;;1.23;;
76107;SDS011;64834;52.516;10.528;2023-04-19T08:22:45;3.03;;;1.17;;
76107;SDS011;64834;52.516;10.528;2023-04-19T08:25:11;2.50;;;1.40;;
76107;SDS011;64834;52.516;10.528;2023-04-19T08:27:36;2.58;;;0.95;;
76107;SDS011;64834;52.516;10.528;2023-04-19T08:30:02;2.65;;;0.90;;
76107;SDS011;64834;52.516;10.528;2023-04-19T08:32:27;4.47;;;1.27;;
76107;SDS011;64834;52.516;10.528;2023-04-19T08:34:53;2.90;;;1.30;;
76107;SDS011;64834;52.516;10.528;2023-04-19T08:37:18;3.78;;;1.17;;
76107;SDS011;64834;52.516;10.528;2023-04-19T08:39:44;5.82;;;1.23;;
76107;SDS011;64834;52.516;10.528;2023-04-19T08:42:09;2.85;;;1.15;;
76107;SDS011;64834;52.516;10.528;2023-04-19T08:44:35;2.70;;;1.10;;
76107;SDS011;64834;52.516;10.528;2023-04-19T08:47:04;2.67;;;1.13;;
76107;SDS011;64834;52.516;10.528;2023-04-19T08:49:47;2.13;;;1.00;;
76107;SDS011;64834;52.516;10.528;2023-04-19T08:52:19;1.52;;;0.70;;
76107;SDS011;64834;52.516;10.528;2023-04-19T08:54:54;1.77;;;0.95;;
76107;SDS011;64834;52.516;10.528;2023-04-19T08:57:25;3.00;;;1.00;;
76107;SDS011;64834;52.516;10.528;2023-04-19T08:59:51;2.20;;;1.00;;
76107;SDS011;64834;52.516;10.528;2023-04-19T09:02:27;3.67;;;1.23;;
76107;SDS011;64834;52.516;10.528;2023-04-19T09:05:14;2.92;;;1.38;;
76107;SDS011;64834;52.516;10.528;2023-04-19T09:07:44;3.20;;;1.27;;
76107;SDS011;64834;52.516;10.528;2023-04-19T09:10:22;4.95;;;1.52;;
76107;SDS011;64834;52.516;10.528;2023-04-19T09:13:01;3.50;;;0.95;;
76107;SDS011;64834;52.516;10.528;2023-04-19T09:15:39;3.28;;;1.25;;
76107;SDS011;64834;52.516;10.528;2023-04-19T09:18:09;3.08;;;1.02;;
76107;SDS011;64834;52.516;10.528;2023-04-19T09:20:39;2.60;;;1.10;;
76107;SDS011;64834;52.516;10.528;2023-04-19T09:23:14;4.95;;;1.50;;
76107;SDS011;64834;52.516;10.528;2023-04-19T09:26:04;1.80;;;1.00;;
76107;SDS011;64834;52.516;10.528;2023-04-19T09:28:31;2.83;;;1.00;;
76107;SDS011;64834;52.516;10.528;2023-04-19T09:30:56;2.60;;;1.10;;
76107;SDS011;64834;52.516;10.528;2023-04-19T09:33:35;3.88;;;1.30;;
76107;SDS011;64834;52.516;10.528;2023-04-19T09:36:04;4.07;;;1.05;;
76107;SDS011;64834;52.516;10.528;2023-04-19T09:38:46;4.00;;;1.30;;
76107;SDS011;64834;52.516;10.528;2023-04-19T09:41:12;7.63;;;1.27;;
76107;SDS011;64834;52.516;10.528;2023-04-19T09:43:38;2.17;;;1.00;;
76107;SDS011;64834;52.516;10.528;2023-04-19T09:46:03;5.38;;;1.35;;
76107;SDS011;64834;52.516;10.528;2023-04-19T09:48:28;3.90;;;1.23;;
76107;SDS011;64834;52.516;10.528;2023-04-19T09:51:03;3.92;;;0.93;;
76107;SDS011;64834;52.516;10.528;2023-04-19T09:53:35;9.32;;;1.55;;
76107;SDS011;64834;52.516;10.528;2023-04-19T09:56:04;3.35;;;1.35;;
76107;SDS011;64834;52.516;10.528;2023-04-19T09:58:31;5.07;;;1.23;;
76107;SDS011;64834;52.516;10.528;2023-04-19T10:00:56;2.63;;;1.25;;
76107;SDS011;64834;52.516;10.528;2023-04-19T10:03:26;2.17;;;0.80;;
76107;SDS011;64834;52.516;10.528;2023-04-19T10:05:56;3.00;;;1.27;;
76107;SDS011;64834;52.516;10.528;2023-04-19T10:08:24;3.22;;;1.23;;
76107;SDS011;64834;52.516;10.528;2023-04-19T10:10:52;1.92;;;0.98;;
76107;SDS011;64834;52.516;10.528;2023-04-19T10:13:19;2.35;;;1.15;;
76107;SDS011;64834;52.516;10.528;2023-04-19T10:15:47;2.78;;;1.10;;
76107;SDS011;64834;52.516;10.528;2023-04-19T10:18:13;4.10;;;1.42;;
76107;SDS011;64834;52.516;10.528;2023-04-19T10:20:46;2.10;;;1.17;;
76107;SDS011;64834;52.516;10.528;2023-04-19T10:23:21;3.88;;;1.00;;
76107;SDS011;64834;52.516;10.528;2023-04-19T10:25:47;2.17;;;0.93;;
76107;SDS011;64834;52.516;10.528;2023-04-19T10:28:16;3.03;;;1.10;;
76107;SDS011;64834;52.516;10.528;2023-04-19T10:30:51;2.30;;;1.08;;
76107;SDS011;64834;52.516;10.528;2023-04-19T10:33:56;4.00;;;1.23;;
76107;SDS011;64834;52.516;10.528;2023-04-19T10:36:17;2.00;;;1.00;;
76107;SDS011;64834;52.516;10.528;2023-04-19T10:38:46;3.25;;;1.35;;
76107;SDS011;64834;52.516;10.528;2023-04-19T10:41:16;2.50;;;0.93;;
76107;SDS011;64834;52.516;10.528;2023-04-19T10:48:59;5.82;;;1.45;;
76107;SDS011;64834;52.516;10.528;2023-04-19T10:51:34;4.10;;;1.27;;
76107;SDS011;64834;52.516;10.528;2023-04-19T10:54:26;2.20;;;1.10;;
76107;SDS011;64834;52.516;10.528;2023-04-19T10:57:12;4.80;;;1.50;;
76107;SDS011;64834;52.516;10.528;2023-04-19T10:59:47;3.63;;;1.27;;
76107;SDS011;64834;52.516;10.528;2023-04-19T11:02:46;3.20;;;1.10;;
76107;SDS011;64834;52.516;10.528;2023-04-19T11:05:11;3.30;;;1.40;;
76107;SDS011;64834;52.516;10.528;2023-04-19T11:07:41;2.58;;;1.23;;
76107;SDS011;64834;52.516;10.528;2023-04-19T11:10:07;2.50;;;1.05;;
76107;SDS011;64834;52.516;10.528;2023-04-19T11:12:33;2.17;;;1.13;;
76107;SDS011;64834;52.516;10.528;2023-04-19T11:14:58;3.28;;;1.25;;
76107;SDS011;64834;52.516;10.528;2023-04-19T11:17:25;2.28;;;1.20;;
76107;SDS011;64834;52.516;10.528;2023-04-19T11:22:36;2.00;;;0.98;;
76107;SDS011;64834;52.516;10.528;2023-04-19T11:25:08;2.60;;;1.15;;
76107;SDS011;64834;52.516;10.528;2023-04-19T11:27:37;3.75;;;1.63;;
76107;SDS011;64834;52.516;10.528;2023-04-19T11:30:04;1.75;;;0.93;;
76107;SDS011;64834;52.516;10.528;2023-04-19T11:32:30;2.50;;;1.00;;
76107;SDS011;64834;52.516;10.528;2023-04-19T11:34:56;3.13;;;1.25;;
76107;SDS011;64834;52.516;10.528;2023-04-19T11:37:22;2.78;;;1.25;;
76107;SDS011;64834;52.516;10.528;2023-04-19T11:39:47;1.90;;;1.00;;
76107;SDS011;64834;52.516;10.528;2023-04-19T11:42:18;2.17;;;1.20;;
76107;SDS011;64834;52.516;10.528;2023-04-19T11:44:48;3.03;;;1.20;;
76107;SDS011;64834;52.516;10.528;2023-04-19T11:47:14;3.42;;;1.67;;
76107;SDS011;64834;52.516;10.528;2023-04-19T11:49:40;3.20;;;1.42;;
76107;SDS011;64834;52.516;10.528;2023-04-19T11:52:05;2.65;;;1.50;;
76107;SDS011;64834;52.516;10.528;2023-04-19T11:54:31;3.25;;;1.33;;
76107;SDS011;64834;52.516;10.528;2023-04-19T11:57:00;2.50;;;1.10;;
76107;SDS011;64834;52.516;10.528;2023-04-19T11:59:30;2.65;;;1.38;;
76107;SDS011;64834;52.516;10.528;2023-04-19T12:02:09;5.10;;;1.50;;
76107;SDS011;64834;52.516;10.528;2023-04-19T12:04:36;4.85;;;1.95;;
76107;SDS011;64834;52.516;10.528;2023-04-19T12:07:03;2.85;;;1.55;;
76107;SDS011;64834;52.516;10.528;2023-04-19T12:09:31;2.47;;;1.30;;
76107;SDS011;64834;52.516;10.528;2023-04-19T12:11:58;3.42;;;1.63;;
76107;SDS011;64834;52.516;10.528;2023-04-19T12:14:23;4.72;;;1.58;;
76107;SDS011;64834;52.516;10.528;2023-04-19T12:17:06;5.45;;;2.13;;
76107;SDS011;64834;52.516;10.528;2023-04-19T12:19:34;3.72;;;1.52;;
76107;SDS011;64834;52.516;10.528;2023-04-19T12:22:14;5.00;;;1.83;;
76107;SDS011;64834;52.516;10.528;2023-04-19T12:24:41;2.67;;;1.48;;
76107;SDS011;64834;52.516;10.528;2023-04-19T12:27:10;5.63;;;1.63;;
76107;SDS011;64834;52.516;10.528;2023-04-19T12:29:35;4.13;;;1.80;;
76107;SDS011;64834;52.516;10.528;2023-04-19T12:32:02;3.83;;;2.30;;
76107;SDS011;64834;52.516;10.528;2023-04-19T12:34:27;4.47;;;1.45;;
76107;SDS011;64834;52.516;10.528;2023-04-19T12:36:53;4.60;;;1.63;;
76107;SDS011;64834;52.516;10.528;2023-04-19T12:39:18;3.05;;;1.60;;
76107;SDS011;64834;52.516;10.528;2023-04-19T12:41:44;4.05;;;1.85;;
76107;SDS011;64834;52.516;10.528;2023-04-19T12:44:12;8.77;;;2.80;;
76107;SDS011;64834;52.516;10.528;2023-04-19T12:46:37;3.67;;;2.00;;
76107;SDS011;64834;52.516;10.528;2023-04-19T12:49:03;6.15;;;1.83;;
76107;SDS011;64834;52.516;10.528;2023-04-19T12:51:31;3.38;;;1.60;;
76107;SDS011;64834;52.516;10.528;2023-04-19T12:54:02;3.45;;;1.80;;
76107;SDS011;64834;52.516;10.528;2023-04-19T12:56:31;5.72;;;2.60;;
76107;SDS011;64834;52.516;10.528;2023-04-19T12:58:57;3.35;;;1.95;;
76107;SDS011;64834;52.516;10.528;2023-04-19T13:01:25;4.85;;;2.33;;
76107;SDS011;64834;52.516;10.528;2023-04-19T13:03:50;4.05;;;2.13;;
76107;SDS011;64834;52.516;10.528;2023-04-19T13:06:15;2.75;;;1.20;;
76107;SDS011;64834;52.516;10.528;2023-04-19T13:08:41;3.35;;;1.83;;
76107;SDS011;64834;52.516;10.528;2023-04-19T13:11:06;2.92;;;1.83;;
76107;SDS011;64834;52.516;10.528;2023-04-19T13:13:33;3.80;;;1.73;;
76107;SDS011;64834;52.516;10.528;2023-04-19T13:15:58;4.57;;;1.58;;
76107;SDS011;64834;52.516;10.528;2023-04-19T13:18:24;5.97;;;1.63;;
76107;SDS011;64834;52.516;10.528;2023-04-19T13:20:49;5.30;;;2.33;;
76107;SDS011;64834;52.516;10.528;2023-04-19T13:23:14;4.88;;;1.75;;
76107;SDS011;64834;52.516;10.528;2023-04-19T13:25:40;3.95;;;1.60;;
76107;SDS011;64834;52.516;10.528;2023-04-19T13:28:05;2.88;;;1.35;;
76107;SDS011;64834;52.516;10.528;2023-04-19T13:30:31;3.00;;;1.52;;
76107;SDS011;64834;52.516;10.528;2023-04-19T13:32:56;5.75;;;1.70;;
76107;SDS011;64834;52.516;10.528;2023-04-19T13:35:21;5.47;;;1.80;;
76107;SDS011;64834;52.516;10.528;2023-04-19T13:37:46;4.40;;;1.90;;
76107;SDS011;64834;52.516;10.528;2023-04-19T13:40:12;2.72;;;1.88;;
76107;SDS011;64834;52.516;10.528;2023-04-19T13:42:37;3.45;;;1.65;;
76107;SDS011;64834;52.516;10.528;2023-04-19T13:45:03;3.42;;;1.77;;
76107;SDS011;64834;52.516;10.528;2023-04-19T13:47:28;4.75;;;1.55;;
76107;SDS011;64834;52.516;10.528;2023-04-19T13:49:53;4.38;;;2.03;;
76107;SDS011;64834;52.516;10.528;2023-04-19T13:52:19;4.22;;;2.00;;
76107;SDS011;64834;52.516;10.528;2023-04-19T13:54:44;7.07;;;2.00;;
76107;SDS011;64834;52.516;10.528;2023-04-19T13:57:10;3.80;;;1.88;;
76107;SDS011;64834;52.516;10.528;2023-04-19T13:59:35;4.80;;;2.35;;
76107;SDS011;64834;52.516;10.528;2023-04-19T14:02:02;4.85;;;1.95;;
76107;SDS011;64834;52.516;10.528;2023-04-19T14:04:27;4.97;;;1.80;;
76107;SDS011;64834;52.516;10.528;2023-04-19T14:06:53;4.00;;;2.10;;
76107;SDS011;64834;52.516;10.528;2023-04-19T14:09:18;7.30;;;2.20;;
76107;SDS011;64834;52.516;10.528;2023-04-19T14:11:43;5.55;;;2.00;;
76107;SDS011;64834;52.516;10.528;2023-04-19T14:14:09;4.75;;;2.10;;
76107;SDS011;64834;52.516;10.528;2023-04-19T14:16:34;3.00;;;1.70;;
76107;SDS011;64834;52.516;10.528;2023-04-19T14:18:59;3.53;;;2.00;;
76107;SDS011;64834;52.516;10.528;2023-04-19T14:21:25;4.15;;;1.73;;
76107;SDS011;64834;52.516;10.528;2023-04-19T14:23:50;3.15;;;1.65;;
76107;SDS011;64834;52.516;10.528;2023-04-19T14:26:16;3.25;;;1.70;;
76107;SDS011;64834;52.516;10.528;2023-04-19T14:28:41;2.92;;;1.55;;
76107;SDS011;64834;52.516;10.528;2023-04-19T14:31:06;4.95;;;1.90;;
76107;SDS011;64834;52.516;10.528;2023-04-19T14:33:32;5.32;;;2.50;;
76107;SDS011;64834;52.516;10.528;2023-04-19T14:35:57;4.13;;;1.90;;
76107;SDS011;64834;52.516;10.528;2023-04-19T14:38:22;3.38;;;1.92;;
76107;SDS011;64834;52.516;10.528;2023-04-19T14:40:47;4.32;;;2.03;;
76107;SDS011;64834;52.516;10.528;2023-04-19T14:43:16;3.42;;;1.98;;